Time,TemperatureF,DewpointF,PressureIn,WindDirection,WindDirectionDegrees,WindSpeedMPH,WindSpeedGustMPH,Humidity,HourlyPrecipIn,Conditions,Clouds,dailyrainin,SoftwareType,DateUTC
2013-08-26 00:00:00,58.1,56.1,30.37,ENE,59,0.0,0.0,93,0.00,CLR,,0.00,WeatherDisplay:10.37,2013-08-26 04:00:00,
2013-08-26 00:14:00,57.9,55.9,30.37,ENE,59,0.0,0.0,93,0.00,CLR,,0.00,WeatherDisplay:10.37,2013-08-26 04:14:00,
2013-08-26 00:30:00,57.5,55.2,30.38,ENE,59,0.0,0.0,92,0.00,CLR,,0.00,WeatherDisplay:10.37,2013-08-26 04:30:00,
2013-08-26 00:44:00,57.4,55.4,30.37,ENE,59,0.0,0.0,93,0.00,CLR,,0.00,WeatherDisplay:10.37,2013-08-26 04:44:00,
2013-08-26 01:00:00,57.2,54.9,30.37,ENE,59,0.0,0.0,92,0.00,CLR,,0.00,WeatherDisplay:10.37,2013-08-26 05:00:00,
2013-08-26 01:14:00,56.9,54.9,30.37,ENE,59,0.0,0.0,93,0.00,CLR,,0.00,WeatherDisplay:10.37,2013-08-26 05:14:00,
2013-08-26 01:30:00,56.5,54.5,30.37,ENE,59,0.0,1.0,93,0.00,CLR,,0.00,WeatherDisplay:10.37,2013-08-26 05:30:00,
2013-08-26 01:44:00,56.3,54.3,30.37,ENE,59,0.0,0.0,93,0.00,CLR,,0.00,WeatherDisplay:10.37,2013-08-26 05:44:00,
2013-08-26 02:00:00,56.1,54.1,30.37,ENE,59,0.0,0.0,93,0.00,CLR,,0.00,WeatherDisplay:10.37,2013-08-26 06:00:00,
2013-08-26 02:14:00,55.7,53.8,30.36,ENE,59,0.0,0.0,93,0.00,CLR,,0.00,WeatherDisplay:10.37,2013-08-26 06:14:00,
2013-08-26 02:30:00,55.4,53.4,30.36,ENE,59,0.0,0.0,93,0.00,CLR,,0.00,WeatherDisplay:10.37,2013-08-26 06:30:00,
2013-08-26 02:44:00,55.3,53.6,30.36,ENE,59,0.0,0.0,94,0.00,CLR,,0.00,WeatherDisplay:10.37,2013-08-26 06:44:00,
2013-08-26 03:00:00,55.1,53.4,30.36,ENE,59,0.0,0.0,94,0.00,CLR,,0.00,WeatherDisplay:10.37,2013-08-26 07:00:00,
2013-08-26 03:14:00,54.8,53.1,30.36,ENE,59,0.0,0.0,94,0.00,CLR,,0.00,WeatherDisplay:10.37,2013-08-26 07:14:00,
2013-08-26 03:30:00,54.6,53.5,30.35,ENE,59,0.0,0.0,96,0.00,CLR,,0.00,WeatherDisplay:10.37,2013-08-26 07:30:00,
2013-08-26 03:44:00,54.3,53.2,30.35,ENE,59,0.0,0.0,96,0.00,CLR,,0.00,WeatherDisplay:10.37,2013-08-26 07:44:00,
2013-08-26 04:00:00,54.2,53.1,30.34,ENE,59,0.0,0.0,96,0.00,CLR,,0.00,WeatherDisplay:10.37,2013-08-26 08:00:00,
2013-08-26 04:14:00,54.1,53.0,30.34,ENE,59,0.0,0.0,96,0.00,CLR,,0.00,WeatherDisplay:10.37,2013-08-26 08:14:00,
2013-08-26 04:30:00,53.9,52.8,30.34,ENE,59,0.0,0.0,96,0.00,CLR,,0.00,WeatherDisplay:10.37,2013-08-26 08:30:00,
2013-08-26 04:44:00,53.7,52.9,30.33,ENE,59,0.0,0.0,97,0.00,CLR,,0.00,WeatherDisplay:10.37,2013-08-26 08:44:00,
2013-08-26 05:00:00,53.4,52.3,30.33,ENE,59,0.0,0.0,96,0.00,CLR,,0.00,WeatherDisplay:10.37,2013-08-26 09:00:00,
2013-08-26 05:14:00,53.1,52.3,30.33,ENE,59,0.0,0.0,97,0.00,CLR,,0.00,WeatherDisplay:10.37,2013-08-26 09:14:00,
2013-08-26 05:30:00,53.0,52.2,30.33,ENE,59,0.0,0.0,97,0.00,CLR,,0.00,WeatherDisplay:10.37,2013-08-26 09:30:00,
2013-08-26 05:44:00,52.9,52.1,30.33,ENE,59,0.0,0.0,97,0.00,CLR,,0.00,WeatherDisplay:10.37,2013-08-26 09:44:00,
2013-08-26 06:00:00,52.7,51.9,30.33,ENE,59,0.0,0.0,97,0.00,CLR,,0.00,WeatherDisplay:10.37,2013-08-26 10:00:00,
2013-08-26 06:14:00,52.5,51.7,30.32,ENE,59,0.0,0.0,97,0.00,CLR,,0.00,WeatherDisplay:10.37,2013-08-26 10:14:00,
2013-08-26 06:30:00,52.3,51.5,30.33,ENE,59,0.0,0.0,97,0.00,CLR,,0.00,WeatherDisplay:10.37,2013-08-26 10:30:00,
2013-08-26 06:44:00,52.1,51.6,30.33,ENE,59,0.0,0.0,98,0.00,CLR,,0.00,WeatherDisplay:10.37,2013-08-26 10:44:00,
2013-08-26 07:00:00,52.2,51.7,30.33,ENE,59,0.0,0.0,98,0.00,CLR,,0.00,WeatherDisplay:10.37,2013-08-26 11:00:00,
2013-08-26 07:14:00,52.4,51.9,30.33,ENE,58,0.0,0.0,98,0.00,CLR,,0.00,WeatherDisplay:10.37,2013-08-26 11:14:00,
2013-08-26 07:30:00,52.6,52.1,30.34,ENE,58,0.0,0.0,98,0.00,CLR,,0.00,WeatherDisplay:10.37,2013-08-26 11:30:00,
2013-08-26 07:44:00,53.3,52.8,30.34,ENE,58,0.0,0.0,98,0.00,CLR,,0.00,WeatherDisplay:10.37,2013-08-26 11:44:00,
2013-08-26 08:00:00,54.2,54.0,30.34,ENE,58,0.0,0.0,99,0.00,CLR,,0.00,WeatherDisplay:10.37,2013-08-26 12:00:00,
2013-08-26 08:14:00,55.8,55.5,30.35,ENE,58,0.0,0.0,99,0.00,CLR,,0.00,WeatherDisplay:10.37,2013-08-26 12:14:00,
2013-08-26 08:30:00,58.0,57.7,30.34,ENE,58,0.0,0.0,99,0.00,CLR,,0.00,WeatherDisplay:10.37,2013-08-26 12:30:00,
2013-08-26 08:44:00,59.8,59.5,30.35,ENE,58,0.0,0.0,99,0.00,CLR,,0.00,WeatherDisplay:10.37,2013-08-26 12:44:00,
2013-08-26 09:00:00,60.6,60.3,30.35,ENE,58,0.0,1.0,99,0.00,CLR,,0.00,WeatherDisplay:10.37,2013-08-26 13:00:00,
2013-08-26 09:14:00,60.9,60.6,30.35,ENE,58,0.0,1.0,99,0.00,CLR,,0.00,WeatherDisplay:10.37,2013-08-26 13:14:00,
2013-08-26 09:30:00,61.6,61.4,30.34,ENE,58,0.0,2.0,99,0.00,CLR,,0.00,WeatherDisplay:10.37,2013-08-26 13:30:00,
2013-08-26 09:44:00,62.7,62.1,30.35,North,0,0.0,2.0,98,0.00,CLR,,0.00,WeatherDisplay:10.37,2013-08-26 13:44:00,
2013-08-26 10:00:00,64.1,62.3,30.35,North,0,0.0,1.0,94,0.00,CLR,,0.00,WeatherDisplay:10.37,2013-08-26 14:00:00,
2013-08-26 10:14:00,65.9,63.2,30.35,North,0,0.0,2.0,91,0.00,CLR,,0.00,WeatherDisplay:10.37,2013-08-26 14:14:00,
2013-08-26 10:30:00,67.8,62.8,30.34,North,352,2.0,4.0,84,0.00,CLR,,0.00,WeatherDisplay:10.37,2013-08-26 14:30:00,
2013-08-26 10:44:00,70.4,64.3,30.34,NNW,328,0.0,4.0,81,0.00,CLR,,0.00,WeatherDisplay:10.37,2013-08-26 14:44:00,
2013-08-26 11:00:00,72.0,63.3,30.34,NW,323,0.0,4.0,74,0.00,CLR,,0.00,WeatherDisplay:10.37,2013-08-26 15:00:00,
2013-08-26 11:14:00,72.6,60.6,30.34,NNW,328,2.0,6.0,66,0.00,CLR,,0.00,WeatherDisplay:10.37,2013-08-26 15:14:00,
2013-08-26 11:30:00,73.9,63.1,30.34,SSW,197,1.0,6.0,69,0.00,CLR,,0.00,WeatherDisplay:10.37,2013-08-26 15:30:00,
2013-08-26 11:44:00,73.9,61.8,30.33,NNW,337,1.0,6.0,66,0.00,CLR,,0.00,WeatherDisplay:10.37,2013-08-26 15:44:00,
2013-08-26 12:00:00,74.5,62.8,30.33,NW,321,2.0,6.0,67,0.00,CLR,,0.00,WeatherDisplay:10.37,2013-08-26 16:00:00,
2013-08-26 12:14:00,75.2,62.2,30.32,WNW,289,1.0,5.0,64,0.00,CLR,,0.00,WeatherDisplay:10.37,2013-08-26 16:14:00,
2013-08-26 12:30:00,75.8,62.3,30.31,NNW,330,3.0,5.0,63,0.00,CLR,,0.00,WeatherDisplay:10.37,2013-08-26 16:30:00,
2013-08-26 12:44:00,76.7,61.8,30.30,NNE,25,2.0,7.0,60,0.00,CLR,,0.00,WeatherDisplay:10.37,2013-08-26 16:44:00,
2013-08-26 13:00:00,77.7,62.7,30.30,NNW,348,1.0,4.0,60,0.00,CLR,,0.00,WeatherDisplay:10.37,2013-08-26 17:00:00,
2013-08-26 13:14:00,77.8,62.3,30.29,NW,309,0.0,4.0,59,0.00,CLR,,0.00,WeatherDisplay:10.37,2013-08-26 17:14:00,
2013-08-26 13:30:00,77.9,63.9,30.28,West,279,1.0,4.0,62,0.00,CLR,,0.00,WeatherDisplay:10.37,2013-08-26 17:30:00,
2013-08-26 13:44:00,78.4,61.9,30.28,WSW,250,1.0,4.0,57,0.00,CLR,,0.00,WeatherDisplay:10.37,2013-08-26 17:44:00,
2013-08-26 14:00:00,78.5,61.0,30.28,West,260,1.0,4.0,55,0.00,CLR,,0.00,WeatherDisplay:10.37,2013-08-26 18:00:00,
2013-08-26 14:14:00,79.2,60.6,30.27,NE,41,1.0,5.0,53,0.00,CLR,,0.00,WeatherDisplay:10.37,2013-08-26 18:14:00,
2013-08-26 14:30:00,80.5,62.3,30.26,NNW,329,2.0,4.0,54,0.00,CLR,,0.00,WeatherDisplay:10.37,2013-08-26 18:30:00,
2013-08-26 14:44:00,81.1,61.8,30.26,NE,51,1.0,5.0,52,0.00,CLR,,0.00,WeatherDisplay:10.37,2013-08-26 18:44:00,
2013-08-26 15:00:00,78.9,61.9,30.25,North,0,1.0,6.0,56,0.00,CLR,,0.00,WeatherDisplay:10.37,2013-08-26 19:00:00,
2013-08-26 15:14:00,80.3,62.7,30.24,NNE,30,1.0,5.0,55,0.00,CLR,,0.00,WeatherDisplay:10.37,2013-08-26 19:14:00,
2013-08-26 15:30:00,80.2,61.0,30.24,NNE,18,0.0,4.0,52,0.00,CLR,,0.00,WeatherDisplay:10.37,2013-08-26 19:30:00,
2013-08-26 15:44:00,80.8,62.1,30.23,SSW,212,1.0,7.0,53,0.00,CLR,,0.00,WeatherDisplay:10.37,2013-08-26 19:44:00,
2013-08-26 16:00:00,80.5,61.8,30.22,SSW,205,1.0,4.0,53,0.00,CLR,,0.00,WeatherDisplay:10.37,2013-08-26 20:00:00,
2013-08-26 16:14:00,80.7,63.0,30.22,SW,225,1.0,5.0,55,0.00,CLR,,0.00,WeatherDisplay:10.37,2013-08-26 20:14:00,
2013-08-26 16:30:00,81.4,62.6,30.21,SW,214,0.0,7.0,53,0.00,CLR,,0.00,WeatherDisplay:10.37,2013-08-26 20:30:00,
2013-08-26 16:44:00,81.6,63.3,30.21,SW,229,1.0,6.0,54,0.00,CLR,,0.00,WeatherDisplay:10.37,2013-08-26 20:44:00,
2013-08-26 17:00:00,81.1,62.9,30.20,SW,231,0.0,4.0,54,0.00,CLR,,0.00,WeatherDisplay:10.37,2013-08-26 21:00:00,
2013-08-26 17:14:00,80.8,61.6,30.20,SW,231,0.0,5.0,52,0.00,CLR,,0.00,WeatherDisplay:10.37,2013-08-26 21:14:00,
2013-08-26 17:30:00,80.3,63.2,30.19,SW,231,1.0,5.0,56,0.00,FEW,,0.00,WeatherDisplay:10.37,2013-08-26 21:30:00,
2013-08-26 17:44:00,79.6,63.0,30.19,WSW,241,0.0,4.0,57,0.00,FEW,,0.00,WeatherDisplay:10.37,2013-08-26 21:44:00,
2013-08-26 18:00:00,79.5,62.9,30.18,WSW,238,0.0,2.0,57,0.00,FEW,,0.00,WeatherDisplay:10.37,2013-08-26 22:00:00,
2013-08-26 18:14:00,79.1,63.5,30.18,SW,236,0.0,3.0,59,0.00,FEW,,0.00,WeatherDisplay:10.37,2013-08-26 22:14:00,
2013-08-26 18:30:00,78.7,63.1,30.18,SW,231,0.0,4.0,59,0.00,CLR,,0.00,WeatherDisplay:10.37,2013-08-26 22:30:00,
2013-08-26 18:44:00,78.1,63.6,30.18,SW,231,0.0,2.0,61,0.00,CLR,,0.00,WeatherDisplay:10.37,2013-08-26 22:44:00,
2013-08-26 19:00:00,77.5,63.5,30.17,SW,231,0.0,2.0,62,0.00,CLR,,0.00,WeatherDisplay:10.37,2013-08-26 23:00:00,
2013-08-26 19:14:00,76.6,64.4,30.17,SW,231,0.0,1.0,66,0.00,CLR,,0.00,WeatherDisplay:10.37,2013-08-26 23:14:00,
2013-08-26 19:30:00,75.4,64.5,30.17,SW,231,0.0,0.0,69,0.00,CLR,,0.00,WeatherDisplay:10.37,2013-08-26 23:30:00,
2013-08-26 19:44:00,73.5,64.3,30.17,SW,231,0.0,0.0,73,0.00,CLR,,0.00,WeatherDisplay:10.37,2013-08-26 23:44:00,
2013-08-26 20:00:00,71.8,64.2,30.17,SW,231,0.0,0.0,77,0.00,CLR,,0.00,WeatherDisplay:10.37,2013-08-27 00:00:00,
2013-08-26 20:14:00,70.3,63.9,30.17,SW,231,0.0,0.0,80,0.00,CLR,,0.00,WeatherDisplay:10.37,2013-08-27 00:14:00,
2013-08-26 20:30:00,69.3,63.6,30.17,SW,231,0.0,0.0,82,0.00,CLR,,0.00,WeatherDisplay:10.37,2013-08-27 00:30:00,
2013-08-26 20:44:00,68.3,62.9,30.17,SW,231,0.0,0.0,83,0.00,CLR,,0.00,WeatherDisplay:10.37,2013-08-27 00:44:00,
2013-08-26 21:00:00,67.5,62.5,30.17,SW,231,0.0,0.0,84,0.00,CLR,,0.00,WeatherDisplay:10.37,2013-08-27 01:00:00,
2013-08-26 21:14:00,66.9,62.2,30.17,SW,231,0.0,0.0,85,0.00,CLR,,0.00,WeatherDisplay:10.37,2013-08-27 01:14:00,
2013-08-26 21:30:00,66.3,62.0,30.17,SW,231,0.0,0.0,86,0.00,CLR,,0.00,WeatherDisplay:10.37,2013-08-27 01:30:00,
2013-08-26 21:44:00,65.9,61.9,30.17,SW,231,0.0,0.0,87,0.00,CLR,,0.00,WeatherDisplay:10.37,2013-08-27 01:44:00,
2013-08-26 22:00:00,65.4,61.8,30.18,SW,231,0.0,0.0,88,0.00,CLR,,0.00,WeatherDisplay:10.37,2013-08-27 02:00:00,
2013-08-26 22:14:00,65.1,61.5,30.18,SW,231,0.0,0.0,88,0.00,CLR,,0.00,WeatherDisplay:10.37,2013-08-27 02:14:00,
2013-08-26 22:30:00,64.8,61.2,30.19,SW,231,0.0,1.0,88,0.00,CLR,,0.00,WeatherDisplay:10.37,2013-08-27 02:30:00,
2013-08-26 22:44:00,64.6,61.3,30.19,SW,231,0.0,0.0,89,0.00,CLR,,0.00,WeatherDisplay:10.37,2013-08-27 02:44:00,
2013-08-26 23:00:00,64.4,61.1,30.19,SW,231,0.0,0.0,89,0.00,CLR,,0.00,WeatherDisplay:10.37,2013-08-27 03:00:00,
2013-08-26 23:14:00,64.1,61.1,30.19,SW,231,0.0,0.0,90,0.00,CLR,,0.00,WeatherDisplay:10.37,2013-08-27 03:14:00,
2013-08-26 23:30:00,63.9,60.9,30.19,SW,231,0.0,0.0,90,0.00,CLR,,0.00,WeatherDisplay:10.37,2013-08-27 03:30:00,
2013-08-26 23:44:00,63.5,60.5,30.19,SW,231,0.0,1.0,90,0.00,CLR,,0.00,WeatherDisplay:10.37,2013-08-27 03:44:00,